メインページ
METAR-TAF:

METAR-TAF

空港 :

ウラジオストク国際空港

ウラジオストク, ロシア

緯度: 43-07N, 経度: 131-56E, 海抜: 184m

現時点の気象観測

当レポートは15分前の03:00(UTC)に作成
南西の風 10kt
気温 25°C
湿度 19%
気圧 1018 hPa
視程10km以上

METAR: UHWW 210300Z 23005MPS 9999 NSC 25/00 Q1018 R25L/0///70 NOSIG RMK QFE762

時間: 13:15 (03:15 UTC)

予報

当レポートは1時間15分前の02:00(UTC)に作成
予報は21日の 03時(UTC)から 22日の 03時(UTC)まで有効
南西の風 6kt
視程10km以上
高度3000ftの雲は散在している
21日の 03時(UTC)から 21日の 10時(UTC)まで一時的に
南/南西の風 16kt
21日の 1000時(UTC)から
の風 6kt
視程: 4000m
高度1100ftの千切れ雲あり
22日の 01時(UTC)から 22日の 02時(UTC)まで徐々に
視程10km以上
高度2000ftの雲は散在している

TAF: UHWW 210200Z 2103/2203 22003MPS 9999 SCT030 TEMPO 2103/2110 20008MPS FM211000 18003MPS 4000 BR BKN011 BECMG 2201/2202 9999 NSW SCT020

4,000以上の空港の気象観測と天気予報(METAR報とTAF報)

利用可能な観測所は地図上に黄色い丸と赤い丸で示す。

丸の上にカーソルを重ねると観測所名を参照できる。

次にクリックすると気象観測と天気予報を参照できる。

マップの切り替え:黒色「×」印の緑ボタンをクリックして拡大、「-」印の緑ボタンをクリックして縮小、緑色の三角印をクリックして隣りの地図に切り替え


METAR-TAF: